Green Valley, AZ

8:43 PM MST on March 28, 2015 (GMT -0700)
La Canada Desert Homes I | | Change Station
CLOSE
Current Station
Personal Weather Station
Location: Green Valley, AZ
Elevation: 2930 ft
Nearby Weather Stations

Elev 2930 ft 31.86 °N, 111.00 °W | Updated 6 minutes ago

Clear
Clear
70.5 °F
Feels Like 75 °F
N
1.1
Wind Variable Wind from South

Today
High -- | Low -- °F
--% Chance of Precip.
Yesterday
High -- | Low -- °F
Precip. -- in
6:17 AM 6:40 PM
Waxing Gibbous, 68% visible
Pressure 29.95 in
Visibility 10.0 miles
Clouds Clear
Heat Index 75 °F
Dew Point 29 °F
Humidity 21%
Rainfall 0.00 in
Snow Depth Not available.
UV 0 out of 12
Pollen 10.50 out of 12
Air Quality Not available.
Flu Activity Not available.
METAR KTUS 290253Z 36003KT 10SM CLR 27/M06 A3006 RMK AO2 SLP142 T02671061 53008

More Conditions Fewer Conditions

Pressure 29.95 in
Visibility 10.0 miles
Clouds Clear
Heat Index 75 °F
Dew Point 29 °F
Humidity 21%
Rainfall 0.00 in
Snow Depth Not available.
UV 0 out of 12
Pollen 10.50 out of 12
Air Quality Not available.
Flu Activity Not available.
METAR KTUS 290253Z 36003KT 10SM CLR 27/M06 A3006 RMK AO2 SLP142 T02671061 53008

More Conditions Fewer Conditions

10-Day Weather Forecast

Almanac

Astronomy

Mar. 28, 2015 Rise Set
Actual Time
Civil Twilight
Nautical Twilight
Astronomical Twilight
Moon
Length of Visible Light
Length of Day
Tomorrow will be .
, % of the Moon is Illuminated

Today's Extremes

State Highs State Lows

Community

WunderPhotos

Upload Photos

1,809,177 photos uploaded!

WunderBlogs® & News

Nearby

Air Quality

  Air Quality AQ Index Pollutant
Not available.

Snow Depth

Station Depth Elevation

Earthquake Activity

City Distance Mag. Time & Date
Minimum magnitude displayed is 2.5.

Coastal Water Temperatures

Place Temperature

Stations

Nearby Weather Stations

Station Location Temp. Windchill Dew Point Humidity Wind Precip. Elev Updated Type